Time;durP1;ratioP1;P1;durP2;ratioP2;P2;SDS_P1;SDS_P2;PMS_P1;PMS_P2;Temp;Humidity;BMP_temperature;BMP_pressure;BME280_temperature;BME280_humidity;BME280_pressure;Samples;Min_cycle;Max_cycle;Signal;HPM_P1;HPM_P2
2021/07/31 00:01:27;;;;;;;20.77;5.72;;;;;;;13.96;88.39;100454.53;5014414;28;20398;-91
2021/07/31 00:03:53;;;;;;;16.05;5.85;;;;;;;13.95;88.33;100472.44;5013945;28;20026;-89
2021/07/31 00:06:18;;;;;;;17.08;5.43;;;;;;;13.93;88.18;100464.59;5012914;28;20081;-91
2021/07/31 00:08:43;;;;;;;15.75;4.75;;;;;;;13.97;87.30;100459.72;5013880;28;20085;-88
2021/07/31 00:11:09;;;;;;;17.27;5.35;;;;;;;14.07;86.85;100467.56;5013333;28;20600;-89
2021/07/31 00:13:34;;;;;;;16.15;4.78;;;;;;;14.10;87.15;100473.41;5012973;28;20030;-91
2021/07/31 00:16:00;;;;;;;13.48;3.10;;;;;;;14.21;83.68;100479.41;5011881;28;20033;-89
2021/07/31 00:18:25;;;;;;;10.07;3.00;;;;;;;14.14;83.92;100468.56;5013737;28;20532;-87
2021/07/31 00:20:50;;;;;;;9.10;3.17;;;;;;;14.05;83.97;100477.63;5013445;28;20398;-88
2021/07/31 00:23:16;;;;;;;14.02;3.97;;;;;;;14.04;84.26;100474.09;5013885;28;20132;-91
2021/07/31 00:25:41;;;;;;;20.05;4.28;;;;;;;14.05;84.70;100469.59;5013666;28;20061;-84
2021/07/31 00:28:07;;;;;;;12.55;3.83;;;;;;;14.01;86.06;100458.38;5013587;28;20080;-92
2021/07/31 00:30:33;;;;;;;14.07;3.70;;;;;;;14.05;86.08;100461.56;5014605;28;20034;-88
2021/07/31 00:32:58;;;;;;;14.25;4.10;;;;;;;14.13;84.93;100469.56;5012848;28;20036;-90
2021/07/31 00:35:24;;;;;;;19.88;4.40;;;;;;;14.14;86.01;100460.53;5013293;28;20034;-91
2021/07/31 00:37:49;;;;;;;12.35;4.00;;;;;;;14.14;86.75;100465.88;5013470;28;20117;-84
2021/07/31 00:40:15;;;;;;;15.68;4.40;;;;;;;14.22;85.84;100460.50;5012728;28;20117;-89
2021/07/31 00:42:41;;;;;;;15.90;4.50;;;;;;;14.24;86.72;100463.00;5014138;28;20034;-87
2021/07/31 00:45:11;;;;;;;8.32;3.63;;;;;;;14.26;85.49;100482.41;5011787;28;20036;-86
2021/07/31 00:47:38;;;;;;;15.98;3.97;;;;;;;14.24;85.56;100466.53;5013501;28;20509;-89
2021/07/31 00:50:04;;;;;;;11.50;3.40;;;;;;;14.22;85.61;100473.88;5012751;28;20161;-86
2021/07/31 00:52:30;;;;;;;20.60;4.88;;;;;;;14.22;85.79;100476.53;5013881;28;20089;-89
2021/07/31 00:54:58;;;;;;;12.40;3.92;;;;;;;14.21;85.94;100476.72;5013668;28;20474;-91
2021/07/31 00:57:23;;;;;;;17.73;5.13;;;;;;;14.18;86.66;100477.06;5013275;28;20153;-89
2021/07/31 00:59:49;;;;;;;18.25;4.38;;;;;;;14.14;86.31;100478.41;5013580;28;20037;-92
2021/07/31 01:02:15;;;;;;;13.13;4.18;;;;;;;14.16;85.78;100476.41;5012660;28;20040;-91
2021/07/31 01:04:41;;;;;;;9.43;3.78;;;;;;;14.21;84.63;100468.69;5013491;28;20109;-85
2021/07/31 01:07:07;;;;;;;11.57;3.78;;;;;;;14.23;84.89;100467.53;5012160;28;20391;-88
2021/07/31 01:09:32;;;;;;;26.52;4.88;;;;;;;14.27;85.34;100465.31;5012845;28;20041;-89
2021/07/31 01:11:57;;;;;;;16.92;4.68;;;;;;;14.31;85.43;100472.00;5011214;28;20038;-91
2021/07/31 01:14:23;;;;;;;19.88;4.60;;;;;;;14.32;85.38;100464.84;5013030;28;20549;-88
2021/07/31 01:16:48;;;;;;;19.35;4.40;;;;;;;14.35;85.49;100477.88;5011572;28;20045;-90
2021/07/31 01:19:14;;;;;;;22.63;4.18;;;;;;;14.31;87.21;100476.53;5012156;28;20296;-88
2021/07/31 01:21:44;;;;;;;19.13;3.80;;;;;;;14.26;87.05;100479.72;5013030;28;20054;-90
2021/07/31 01:24:12;;;;;;;25.60;4.20;;;;;;;14.22;87.29;100481.06;5012210;28;20127;-90
2021/07/31 01:26:40;;;;;;;22.45;4.28;;;;;;;14.21;87.51;100476.72;5012847;28;20037;-91
2021/07/31 01:29:07;;;;;;;16.98;4.72;;;;;;;14.20;87.96;100467.03;5012577;28;20057;-89
2021/07/31 01:31:34;;;;;;;29.52;4.55;;;;;;;14.23;87.76;100475.53;5013316;28;20038;-87
2021/07/31 01:34:00;;;;;;;29.08;5.28;;;;;;;14.26;88.23;100469.84;5012104;28;20040;-87
2021/07/31 01:36:25;;;;;;;18.90;5.15;;;;;;;14.30;88.22;100486.38;5012381;28;20033;-89
2021/07/31 01:38:51;;;;;;;27.48;5.70;;;;;;;14.29;88.51;100485.56;5012595;28;20063;-84
2021/07/31 01:41:17;;;;;;;22.58;5.18;;;;;;;14.27;87.77;100484.06;5011703;28;20038;-92
2021/07/31 01:43:42;;;;;;;18.35;5.40;;;;;;;14.29;87.91;100487.41;5011345;28;20038;-88
2021/07/31 01:46:07;;;;;;;21.98;5.82;;;;;;;14.27;88.31;100479.56;5011947;28;20073;-86
2021/07/31 01:48:33;;;;;;;19.45;5.70;;;;;;;14.24;88.32;100479.03;5012309;28;20429;-89
2021/07/31 01:50:58;;;;;;;21.42;6.78;;;;;;;14.27;88.17;100494.75;5012144;28;20034;-82
2021/07/31 01:53:24;;;;;;;18.75;6.47;;;;;;;14.27;88.57;100494.75;5012668;28;20118;-89
2021/07/31 01:55:49;;;;;;;19.98;6.68;;;;;;;14.24;88.62;100495.97;5012524;28;20034;-89
2021/07/31 01:58:14;;;;;;;28.15;6.43;;;;;;;14.24;88.68;100501.31;5011929;28;20034;-87
2021/07/31 02:00:40;;;;;;;32.85;6.43;;;;;;;14.21;87.55;100484.75;5012556;28;20033;-90
2021/07/31 02:03:05;;;;;;;24.33;6.18;;;;;;;14.15;88.90;100506.84;5010899;28;20045;-86
2021/07/31 02:05:30;;;;;;;41.70;6.72;;;;;;;14.10;88.46;100493.97;5012313;28;20503;-86
2021/07/31 02:07:56;;;;;;;26.63;6.15;;;;;;;14.10;87.94;100500.16;5011119;28;20497;-90
2021/07/31 02:10:21;;;;;;;26.13;5.70;;;;;;;14.06;87.96;100501.53;5011511;28;20068;-89
2021/07/31 02:12:47;;;;;;;22.80;6.32;;;;;;;14.04;87.82;100505.34;5010908;28;20034;-87
2021/07/31 02:15:12;;;;;;;26.38;6.00;;;;;;;14.00;88.36;100502.19;5012054;28;20037;-88
2021/07/31 02:17:38;;;;;;;27.05;6.18;;;;;;;14.01;88.88;100503.84;5010897;28;20026;-87
2021/07/31 02:20:04;;;;;;;30.95;7.25;;;;;;;14.04;88.80;100505.34;5011878;28;20034;-86
2021/07/31 02:22:30;;;;;;;22.85;6.50;;;;;;;14.09;88.29;100509.19;5014391;28;20560;-86
2021/07/31 02:24:55;;;;;;;30.98;7.82;;;;;;;14.13;88.41;100508.84;5016097;28;20038;-83
2021/07/31 02:27:20;;;;;;;29.67;6.32;;;;;;;14.16;87.32;100506.66;5014473;28;20124;-88
2021/07/31 02:29:46;;;;;;;22.75;6.13;;;;;;;14.15;86.81;100514.88;5015450;28;20034;-89
2021/07/31 02:32:11;;;;;;;20.08;5.18;;;;;;;14.19;85.46;100510.84;5015355;28;20559;-89
2021/07/31 02:34:36;;;;;;;26.50;6.03;;;;;;;14.21;85.41;100525.72;5014587;28;20034;-90
2021/07/31 02:37:02;;;;;;;18.75;5.20;;;;;;;14.24;84.44;100520.03;5014321;28;20052;-87
2021/07/31 02:39:27;;;;;;;22.48;5.43;;;;;;;14.25;84.28;100521.69;5015147;28;20437;-91
2021/07/31 02:41:52;;;;;;;15.20;4.97;;;;;;;14.23;84.87;100493.44;5016091;28;20065;-88
2021/07/31 02:44:18;;;;;;;17.65;6.05;;;;;;;14.20;85.44;100515.19;5014493;28;20065;-90
2021/07/31 02:46:43;;;;;;;22.67;5.40;;;;;;;14.17;84.14;100521.72;5015946;28;20066;-86
2021/07/31 02:49:08;;;;;;;14.63;5.63;;;;;;;14.19;83.92;100526.91;5015710;28;20041;-88
2021/07/31 02:51:34;;;;;;;13.57;4.13;;;;;;;14.24;82.72;100524.53;5015995;28;20026;-89
2021/07/31 02:53:59;;;;;;;16.08;4.43;;;;;;;14.32;82.36;100518.34;5016038;28;20425;-87
2021/07/31 02:56:25;;;;;;;13.05;4.63;;;;;;;14.32;82.78;100534.41;5015016;28;20056;-87
2021/07/31 02:58:50;;;;;;;18.05;5.05;;;;;;;14.32;82.97;100524.53;5015213;28;20033;-90
2021/07/31 03:01:16;;;;;;;18.08;5.13;;;;;;;14.27;82.81;100522.38;5014784;28;20100;-89
2021/07/31 03:03:41;;;;;;;14.60;4.78;;;;;;;14.28;82.93;100523.19;5015298;28;20107;-88
2021/07/31 03:06:09;;;;;;;11.43;4.43;;;;;;;14.22;82.78;100519.34;5013879;28;20034;-86
2021/07/31 03:08:34;;;;;;;14.63;4.75;;;;;;;14.16;83.38;100521.91;5015396;28;20030;-89
2021/07/31 03:11:04;;;;;;;20.77;5.78;;;;;;;14.13;83.25;100519.56;5015682;28;20117;-92
2021/07/31 03:13:30;;;;;;;14.93;4.43;;;;;;;14.12;82.78;100516.03;5014987;28;20065;-86
2021/07/31 03:15:56;;;;;;;11.48;4.40;;;;;;;14.12;82.56;100534.75;5014783;28;20489;-86
2021/07/31 03:18:22;;;;;;;18.67;4.75;;;;;;;14.13;82.61;100546.31;5014226;28;20537;-83
2021/07/31 03:20:49;;;;;;;11.15;4.88;;;;;;;14.13;83.19;100530.25;5014661;28;20052;-89
2021/07/31 03:23:17;;;;;;;17.27;4.82;;;;;;;14.13;83.11;100532.94;5014630;28;20104;-88
2021/07/31 03:25:43;;;;;;;24.05;5.50;;;;;;;14.15;82.75;100520.22;5014944;28;20458;-82
2021/07/31 03:28:09;;;;;;;12.55;4.47;;;;;;;14.15;82.47;100536.25;5014518;28;20038;-85
2021/07/31 03:30:47;;;;;;;12.07;3.67;;;;;;;14.16;80.91;100537.94;5013956;28;20061;-83
2021/07/31 03:33:13;;;;;;;10.63;4.22;;;;;;;14.19;80.97;100545.63;5012834;28;20084;-82
2021/07/31 03:35:41;;;;;;;13.43;3.85;;;;;;;14.18;81.95;100528.75;5014707;28;20180;-85
2021/07/31 03:38:07;;;;;;;9.60;3.63;;;;;;;14.18;81.49;100542.13;5014682;28;20466;-87
2021/07/31 03:40:33;;;;;;;11.25;3.72;;;;;;;14.14;82.48;100548.81;5014149;28;20466;-85
2021/07/31 03:42:58;;;;;;;12.13;3.38;;;;;;;14.11;81.68;100552.66;5014243;28;20030;-83
2021/07/31 03:45:24;;;;;;;13.57;3.70;;;;;;;14.11;82.14;100555.34;5013700;28;20026;-83
2021/07/31 03:47:49;;;;;;;16.58;5.03;;;;;;;14.09;83.15;100556.50;5014519;28;20080;-83
2021/07/31 03:50:15;;;;;;;15.45;4.45;;;;;;;13.93;84.69;100550.16;5013650;28;20088;-84
2021/07/31 03:52:40;;;;;;;15.48;4.65;;;;;;;13.72;86.27;100563.22;5015213;28;20079;-86
2021/07/31 03:55:06;;;;;;;10.60;4.43;;;;;;;13.61;85.80;100564.34;5014047;28;20030;-86
2021/07/31 03:57:32;;;;;;;14.25;4.43;;;;;;;13.54;87.00;100566.00;5012294;28;20038;-88
2021/07/31 03:59:58;;;;;;;15.40;4.07;;;;;;;13.51;86.23;100564.53;5012942;28;20482;-88
2021/07/31 04:02:23;;;;;;;17.27;4.93;;;;;;;13.47;86.62;100575.72;5012339;28;20034;-88
2021/07/31 04:04:48;;;;;;;15.10;4.00;;;;;;;13.43;87.72;100571.69;5014265;28;20113;-89
2021/07/31 04:07:14;;;;;;;15.40;4.72;;;;;;;13.45;87.73;100572.34;5014084;28;20028;-88
2021/07/31 04:09:39;;;;;;;9.75;4.05;;;;;;;13.47;86.74;100573.03;5013398;28;20077;-87
2021/07/31 04:12:05;;;;;;;14.73;4.60;;;;;;;13.46;86.85;100577.53;5013133;28;20066;-91
2021/07/31 04:14:30;;;;;;;9.52;3.85;;;;;;;13.49;86.58;100581.72;5013254;28;20037;-88
2021/07/31 04:16:56;;;;;;;11.32;4.53;;;;;;;13.50;87.51;100588.75;5014055;28;20042;-87
2021/07/31 04:19:21;;;;;;;15.35;4.10;;;;;;;13.51;87.32;100587.72;5013523;28;20088;-87
2021/07/31 04:21:51;;;;;;;11.20;3.92;;;;;;;13.56;86.44;100586.25;5013693;28;20050;-87
2021/07/31 04:24:16;;;;;;;14.07;4.22;;;;;;;13.62;86.09;100598.13;5012692;28;20041;-87
2021/07/31 04:26:41;;;;;;;11.82;4.05;;;;;;;13.62;87.03;100590.09;5012890;28;20056;-88
2021/07/31 04:29:07;;;;;;;14.68;4.10;;;;;;;13.66;86.58;100607.50;5013616;28;20125;-88
2021/07/31 04:31:32;;;;;;;12.25;4.03;;;;;;;13.69;86.21;100601.81;5013030;28;20085;-89
2021/07/31 04:33:57;;;;;;;18.13;4.07;;;;;;;13.69;86.45;100592.94;5013391;28;20037;-86
2021/07/31 04:36:23;;;;;;;17.88;4.38;;;;;;;13.70;85.64;100603.50;4995318;28;20030;-90
2021/07/31 04:38:48;;;;;;;8.85;4.20;;;;;;;13.68;87.71;100605.47;5013717;28;20398;-87
2021/07/31 04:41:13;;;;;;;11.60;4.28;;;;;;;13.66;87.19;100607.50;5013643;28;20088;-88
2021/07/31 04:43:39;;;;;;;13.00;4.45;;;;;;;13.70;86.57;100621.34;5013275;28;20237;-84
2021/07/31 04:46:04;;;;;;;16.77;4.65;;;;;;;13.70;86.81;100619.53;5012957;28;20469;-85
2021/07/31 04:48:30;;;;;;;11.27;4.45;;;;;;;13.70;86.46;100618.69;5012635;28;20034;-88
2021/07/31 04:51:00;;;;;;;11.98;4.18;;;;;;;13.72;85.83;100619.38;5012225;28;20038;-86
2021/07/31 04:53:27;;;;;;;11.63;4.10;;;;;;;13.77;85.82;100624.22;5012845;28;20409;-87
2021/07/31 04:55:53;;;;;;;7.65;4.20;;;;;;;13.78;85.32;100623.19;5012577;28;20109;-88
2021/07/31 04:58:19;;;;;;;11.40;3.60;;;;;;;13.83;84.65;100634.25;5014084;28;20111;-87
2021/07/31 05:00:46;;;;;;;9.85;3.80;;;;;;;13.85;84.44;100627.75;5013616;28;20081;-87
2021/07/31 05:03:11;;;;;;;7.72;3.88;;;;;;;13.87;84.96;100623.06;5013100;28;20038;-87
2021/07/31 05:05:37;;;;;;;9.90;3.60;;;;;;;13.92;83.73;100628.72;5013398;28;20030;-86
2021/07/31 05:08:03;;;;;;;11.00;3.70;;;;;;;13.95;84.43;100637.44;5012502;28;20037;-88
2021/07/31 05:10:28;;;;;;;15.30;3.80;;;;;;;13.95;84.02;100630.25;5011900;28;20042;-85
2021/07/31 05:12:54;;;;;;;12.25;3.72;;;;;;;13.99;83.83;100631.59;5013523;28;20037;-90
2021/07/31 05:15:19;;;;;;;8.90;3.03;;;;;;;14.00;83.76;100633.25;5012088;28;20026;-87
2021/07/31 05:17:45;;;;;;;8.95;3.75;;;;;;;14.03;83.68;100645.44;4995533;28;20457;-87
2021/07/31 05:20:13;;;;;;;14.45;3.70;;;;;;;14.00;84.93;100627.91;5013376;28;20497;-92
2021/07/31 05:22:38;;;;;;;11.93;3.60;;;;;;;14.01;83.38;100634.91;5011268;28;20054;-88
2021/07/31 05:25:04;;;;;;;13.90;4.40;;;;;;;14.05;83.85;100638.94;5012940;28;20041;-90
2021/07/31 05:27:29;;;;;;;13.93;3.78;;;;;;;14.07;82.92;100639.59;5012806;28;20400;-90
2021/07/31 05:29:55;;;;;;;7.88;3.30;;;;;;;14.12;82.70;100644.44;5013353;28;20026;-89
2021/07/31 05:32:20;;;;;;;15.77;3.60;;;;;;;14.17;83.08;100665.38;5011818;28;20030;-86
2021/07/31 05:34:46;;;;;;;11.02;3.75;;;;;;;14.18;83.11;100653.66;5011271;28;20273;-91
2021/07/31 05:37:11;;;;;;;10.80;3.10;;;;;;;14.22;82.29;100652.31;5011896;28;20042;-88
2021/07/31 05:39:36;;;;;;;16.27;3.75;;;;;;;14.18;83.38;100654.50;5012005;28;20501;-87
2021/07/31 05:42:03;;;;;;;10.98;3.60;;;;;;;14.17;82.87;100652.81;5012777;28;20037;-90
2021/07/31 05:44:29;;;;;;;10.20;2.83;;;;;;;14.24;81.93;100658.31;5011966;28;20044;-86
2021/07/31 05:46:54;;;;;;;12.45;3.33;;;;;;;14.28;81.86;100657.00;5012366;28;20033;-88
2021/07/31 05:49:20;;;;;;;13.57;3.03;;;;;;;14.37;81.37;100652.47;5012744;28;20390;-92
2021/07/31 05:51:45;;;;;;;11.38;3.55;;;;;;;14.41;82.06;100656.50;5012298;28;20075;-90
2021/07/31 05:54:11;;;;;;;9.15;3.30;;;;;;;14.41;81.95;100660.00;5012444;28;20042;-88
2021/07/31 05:56:37;;;;;;;11.88;3.78;;;;;;;14.44;82.23;100659.66;5012627;28;20025;-91
2021/07/31 05:59:02;;;;;;;8.60;3.30;;;;;;;14.50;81.91;100663.50;5016394;28;20558;-89
2021/07/31 06:01:28;;;;;;;12.20;3.00;;;;;;;14.58;81.75;100665.34;5016386;28;20033;-89
2021/07/31 06:03:54;;;;;;;7.55;2.67;;;;;;;14.67;81.14;100682.25;5014652;28;20062;-86
2021/07/31 06:06:20;;;;;;;11.50;3.15;;;;;;;14.72;81.40;100672.72;5016668;28;20030;-89
2021/07/31 06:08:45;;;;;;;7.95;2.63;;;;;;;14.75;80.41;100679.56;5015423;28;20438;-87
2021/07/31 06:11:10;;;;;;;11.68;2.80;;;;;;;14.73;80.38;100676.22;5016200;28;20089;-88
2021/07/31 06:13:36;;;;;;;13.30;2.63;;;;;;;14.68;80.77;100684.78;5016602;28;20084;-80
2021/07/31 06:16:06;;;;;;;12.85;3.20;;;;;;;14.62;81.26;100686.28;5015849;28;20072;-82
2021/07/31 06:18:32;;;;;;;10.48;2.70;;;;;;;14.61;81.03;100686.44;5014917;28;20046;-82
2021/07/31 06:20:58;;;;;;;11.05;3.53;;;;;;;14.54;81.75;100685.41;5016036;28;20366;-77
2021/07/31 06:23:23;;;;;;;14.15;3.05;;;;;;;14.50;82.50;100692.13;5016119;28;20054;-76
2021/07/31 06:25:48;;;;;;;7.82;3.22;;;;;;;14.43;83.62;100697.31;5015381;28;20457;-79
2021/07/31 06:28:14;;;;;;;13.18;3.45;;;;;;;14.31;84.33;100698.66;5016142;28;20041;-87
2021/07/31 06:30:42;;;;;;;16.90;4.50;;;;;;;14.20;86.11;100691.78;5015335;28;20030;-77
2021/07/31 06:33:08;;;;;;;14.63;3.92;;;;;;;14.16;86.57;100691.28;5012291;28;20033;-82
2021/07/31 06:35:35;;;;;;;10.98;3.80;;;;;;;14.23;86.80;100702.16;5013137;28;20038;-83
2021/07/31 06:38:01;;;;;;;8.52;3.30;;;;;;;14.35;85.27;100698.16;5013456;28;20041;-85
2021/07/31 06:40:26;;;;;;;13.38;3.45;;;;;;;14.43;85.17;100700.81;5012002;28;20415;-82
2021/07/31 06:42:51;;;;;;;23.67;4.28;;;;;;;14.55;84.96;100689.78;4994641;28;20113;-78
2021/07/31 06:45:17;;;;;;;15.15;3.13;;;;;;;14.61;84.48;100706.03;5012739;28;20038;-83
2021/07/31 06:47:42;;;;;;;9.20;2.70;;;;;;;14.58;84.38;100710.84;5012437;28;20054;-81
2021/07/31 06:50:10;;;;;;;10.10;3.03;;;;;;;14.48;84.74;100704.81;5011598;28;20037;-84
2021/07/31 06:52:36;;;;;;;11.02;3.40;;;;;;;14.52;85.43;100701.66;5011787;28;20445;-79
2021/07/31 06:55:01;;;;;;;12.27;3.08;;;;;;;14.59;85.54;100697.28;5012586;28;20726;-78
2021/07/31 06:57:27;;;;;;;9.20;2.90;;;;;;;14.69;85.31;100698.97;4994745;28;20078;-76
2021/07/31 06:59:52;;;;;;;8.90;3.03;;;;;;;14.84;85.25;100694.63;5012191;28;20042;-79
2021/07/31 07:02:17;;;;;;;15.52;3.72;;;;;;;15.01;85.48;100711.47;5012381;28;20096;-79
2021/07/31 07:04:43;;;;;;;14.52;3.38;;;;;;;15.16;83.81;100706.25;5011615;28;20096;-79
2021/07/31 07:07:08;;;;;;;16.45;3.92;;;;;;;15.23;83.81;100711.78;5012489;28;20033;-80
2021/07/31 07:09:34;;;;;;;15.32;3.50;;;;;;;15.28;82.29;100702.19;5012257;28;20080;-77
2021/07/31 07:11:59;;;;;;;12.75;2.97;;;;;;;15.28;82.54;100714.75;5012011;28;20045;-81
2021/07/31 07:14:24;;;;;;;8.85;3.28;;;;;;;15.30;83.47;100715.41;5012235;28;20092;-79
2021/07/31 07:16:50;;;;;;;7.93;2.67;;;;;;;15.42;82.39;100714.03;5011619;28;20069;-80
2021/07/31 07:19:16;;;;;;;8.20;3.05;;;;;;;15.38;81.67;100738.69;5012619;28;20128;-82
2021/07/31 07:21:41;;;;;;;9.68;3.67;;;;;;;15.06;84.04;100735.09;5011232;28;20100;-84
2021/07/31 07:24:07;;;;;;;9.82;3.30;;;;;;;14.68;85.96;100738.31;5011212;28;20054;-84
2021/07/31 07:26:32;;;;;;;11.38;3.63;;;;;;;14.44;86.89;100741.81;5012194;28;20109;-82
2021/07/31 07:28:57;;;;;;;9.18;3.40;;;;;;;14.31;88.51;100739.63;5011427;28;20402;-84
2021/07/31 07:31:23;;;;;;;11.02;3.58;;;;;;;14.26;89.47;100736.63;5012029;28;20038;-84
2021/07/31 07:33:48;;;;;;;10.32;3.60;;;;;;;14.24;89.14;100746.63;5011272;28;20091;-84
2021/07/31 07:36:18;;;;;;;13.10;5.40;;;;;;;14.28;90.27;100743.47;5010706;28;20100;-82
2021/07/31 07:38:45;;;;;;;16.52;4.25;;;;;;;14.35;89.86;100751.69;5011335;28;20037;-83
2021/07/31 07:41:12;;;;;;;12.18;4.63;;;;;;;14.49;89.99;100757.38;5012057;28;20042;-82
2021/07/31 07:43:37;;;;;;;16.50;4.72;;;;;;;14.68;90.10;100757.06;5010554;28;20054;-82
2021/07/31 07:46:03;;;;;;;17.45;4.25;;;;;;;14.79;88.39;100753.19;5010642;28;20296;-83
2021/07/31 07:48:29;;;;;;;10.75;3.50;;;;;;;14.80;87.34;100762.91;5011334;28;20482;-79
2021/07/31 07:50:55;;;;;;;15.15;4.10;;;;;;;14.78;87.99;100770.31;5009761;28;20092;-81
2021/07/31 07:53:20;;;;;;;7.93;4.00;;;;;;;14.84;88.65;100772.31;5011773;28;20128;-84
2021/07/31 07:55:51;;;;;;;10.23;4.25;;;;;;;15.01;88.92;100780.31;5011086;28;20038;-85
2021/07/31 07:58:20;;;;;;;8.50;3.88;;;;;;;15.04;86.82;100770.09;5010701;28;20113;-85
2021/07/31 08:00:45;;;;;;;8.20;3.22;;;;;;;15.11;85.54;100764.91;5010297;28;20096;-83
2021/07/31 08:03:12;;;;;;;10.98;3.88;;;;;;;15.19;85.82;100777.44;5011209;28;20402;-83
2021/07/31 08:05:38;;;;;;;10.77;4.00;;;;;;;15.28;85.69;100779.09;5011364;28;20080;-84
2021/07/31 08:08:07;;;;;;;10.48;4.38;;;;;;;15.57;86.68;100780.31;5010325;28;20490;-79
2021/07/31 08:10:33;;;;;;;12.90;3.60;;;;;;;15.92;82.80;100780.91;5010669;28;20038;-82
2021/07/31 08:12:59;;;;;;;11.50;3.58;;;;;;;16.17;81.79;100782.41;5009980;28;20080;-83
2021/07/31 08:15:24;;;;;;;10.10;3.10;;;;;;;16.21;80.02;100790.94;5013632;28;20470;-83
2021/07/31 08:17:49;;;;;;;10.82;3.58;;;;;;;16.17;82.26;100787.78;5013017;28;20111;-85
2021/07/31 08:20:15;;;;;;;6.68;3.35;;;;;;;16.00;81.56;100789.75;5013330;28;20525;-82
2021/07/31 08:22:41;;;;;;;6.93;3.67;;;;;;;15.84;81.81;100793.34;5013694;28;20073;-81
2021/07/31 08:25:07;;;;;;;15.93;3.70;;;;;;;15.71;83.64;100808.28;5013499;28;20096;-84
2021/07/31 08:27:33;;;;;;;10.35;4.10;;;;;;;15.74;83.69;100803.41;5013729;28;20037;-82
2021/07/31 08:29:58;;;;;;;10.02;3.92;;;;;;;15.74;83.16;100787.31;5012010;28;20084;-81
2021/07/31 08:32:23;;;;;;;13.07;4.35;;;;;;;15.84;83.13;100804.06;5013717;28;20041;-83
2021/07/31 08:34:50;;;;;;;12.30;4.88;;;;;;;15.69;84.42;100805.78;5013612;28;20095;-83
2021/07/31 08:37:16;;;;;;;10.77;5.13;;;;;;;15.39;85.84;100812.72;5013739;28;20026;-82
2021/07/31 08:39:42;;;;;;;14.48;4.97;;;;;;;15.16;86.10;100816.13;5013285;28;20069;-81
2021/07/31 08:42:10;;;;;;;19.08;5.35;;;;;;;15.05;87.16;100816.47;5012990;28;20454;-82
2021/07/31 08:44:35;;;;;;;12.18;4.10;;;;;;;14.95;86.79;100814.78;5013613;28;20065;-80
2021/07/31 08:47:05;;;;;;;23.67;5.70;;;;;;;14.88;88.29;100824.50;5013012;28;20065;-85
2021/07/31 08:49:36;;;;;;;13.45;5.88;;;;;;;14.85;88.47;100822.16;5013406;28;20058;-86
2021/07/31 08:52:03;;;;;;;25.63;7.15;;;;;;;14.86;88.56;100826.53;5012459;28;20198;-83
2021/07/31 08:54:29;;;;;;;17.40;6.63;;;;;;;15.21;89.57;100831.69;5013423;28;20038;-83
2021/07/31 08:56:55;;;;;;;11.05;4.13;;;;;;;16.21;83.97;100834.75;5012832;28;20451;-84
2021/07/31 08:59:27;;;;;;;15.75;4.35;;;;;;;16.19;82.51;100838.63;5013307;28;20036;-82
2021/07/31 09:01:54;;;;;;;10.98;3.63;;;;;;;15.58;83.42;100852.56;5013226;28;20489;-79
2021/07/31 09:04:20;;;;;;;8.82;3.42;;;;;;;15.27;84.16;100853.31;5013303;28;20025;-81
2021/07/31 09:06:45;;;;;;;8.02;3.20;;;;;;;15.12;85.44;100852.31;5013483;28;20133;-82
2021/07/31 09:09:12;;;;;;;9.75;4.05;;;;;;;15.21;86.80;100856.66;5014044;28;20112;-80
2021/07/31 09:12:00;;;;;;;15.68;3.70;;;;;;;15.26;84.64;100866.88;5014504;28;20466;-83
2021/07/31 09:14:27;;;;;;;10.85;4.30;;;;;;;15.09;87.07;100871.41;5014309;28;20112;-78
2021/07/31 09:16:53;;;;;;;5.70;2.60;;;;;;;14.85;86.97;100875.75;5014803;28;20065;-79
2021/07/31 09:19:20;;;;;;;12.65;2.47;;;;;;;14.61;86.82;100874.72;5014026;28;20466;-79
2021/07/31 09:21:47;;;;;;;8.65;1.90;;;;;;;14.26;86.79;100878.44;5014459;28;20061;-84
2021/07/31 09:24:17;;;;;;;5.93;2.20;;;;;;;14.05;88.54;100876.19;5013249;28;20487;-86
2021/07/31 09:26:48;;;;;;;4.88;2.53;;;;;;;13.92;88.63;100881.97;5012244;28;20554;-81
2021/07/31 09:29:14;;;;;;;;;;;;;;;13.92;89.48;100882.81;5012915;28;20034;-83
2021/07/31 09:31:46;;;;;;;9.65;2.92;;;;;;;14.07;89.67;100876.88;5012988;28;19936;-86
2021/07/31 09:34:22;;;;;;;;;;;;;;;14.40;89.97;100876.97;5011490;28;20402;-84
2021/07/31 09:36:48;;;;;;;10.90;3.05;;;;;;;14.56;87.70;100876.19;5012750;28;19913;-84
2021/07/31 09:39:14;;;;;;;18.58;5.10;;;;;;;14.64;89.65;100876.22;5012068;28;20398;-85
2021/07/31 09:41:41;;;;;;;9.30;3.63;;;;;;;15.09;89.60;100876.75;5011453;28;20030;-87
2021/07/31 09:44:15;;;;;;;11.90;4.18;;;;;;;15.57;84.54;100884.91;5012068;28;20026;-84
2021/07/31 09:46:42;;;;;;;14.93;4.57;;;;;;;15.42;86.48;100893.66;5012755;28;20038;-83
2021/07/31 09:49:11;;;;;;;10.77;2.88;;;;;;;15.06;86.80;100896.72;5011784;28;20471;-84
2021/07/31 09:51:42;;;;;;;11.18;2.95;;;;;;;14.90;87.51;100899.34;5012573;28;20034;-83
2021/07/31 09:54:10;;;;;;;19.25;3.55;;;;;;;14.90;87.64;100899.34;5011969;28;20029;-78
2021/07/31 09:56:42;;;;;;;13.40;3.38;;;;;;;14.88;87.36;100898.69;5012612;28;20462;-79
2021/07/31 09:59:09;;;;;;;14.70;4.25;;;;;;;14.90;87.62;100910.06;5011852;28;20033;-81
2021/07/31 10:01:38;;;;;;;14.25;4.97;;;;;;;15.07;88.56;100902.88;5012618;28;20045;-82
2021/07/31 10:04:05;;;;;;;21.67;4.88;;;;;;;15.48;87.98;100914.44;5010675;28;20467;-81
2021/07/31 10:06:31;;;;;;;9.07;4.40;;;;;;;15.80;87.13;100919.94;5012424;28;20057;-81
2021/07/31 10:08:58;;;;;;;9.18;4.63;;;;;;;16.44;84.99;100908.31;5011165;28;20167;-87
2021/07/31 10:11:24;;;;;;;9.80;4.35;;;;;;;16.81;79.97;100912.94;5011803;28;20041;-86
2021/07/31 10:13:49;;;;;;;12.75;4.45;;;;;;;16.86;80.01;100913.22;5012297;28;20030;-89
2021/07/31 10:16:16;;;;;;;11.65;4.35;;;;;;;17.52;76.75;100919.97;5012380;28;20117;-83
2021/07/31 10:19:14;;;;;;;8.75;3.42;;;;;;;18.50;75.08;100913.44;5012685;28;20041;-89
2021/07/31 10:22:00;;;;;;;12.27;3.95;;;;;;;18.30;74.07;100918.63;5011689;28;20045;-82
2021/07/31 10:24:28;;;;;;;10.93;3.72;;;;;;;19.31;73.27;100919.69;5011440;28;20038;-82
2021/07/31 10:27:15;;;;;;;6.75;3.35;;;;;;;19.68;65.73;100928.47;5012350;28;20046;-80
2021/07/31 10:29:42;;;;;;;9.77;2.88;;;;;;;19.17;68.39;100932.22;5012233;28;20026;-82
2021/07/31 10:32:19;;;;;;;6.88;2.83;;;;;;;19.29;68.06;100925.25;5011702;28;20041;-84
2021/07/31 10:34:49;;;;;;;7.85;2.85;;;;;;;18.76;69.27;100925.53;5011056;28;20382;-81
2021/07/31 10:37:34;;;;;;;12.50;3.45;;;;;;;18.29;73.83;100927.72;5011307;28;20493;-79
2021/07/31 10:39:59;;;;;;;11.82;4.13;;;;;;;17.69;73.22;100936.75;5012283;28;20422;-81
2021/07/31 10:42:26;;;;;;;7.38;3.55;;;;;;;17.52;73.15;100941.47;5011680;28;20033;-81
2021/07/31 10:45:16;;;;;;;9.85;3.50;;;;;;;17.92;72.56;100944.81;5015710;28;20083;-83
2021/07/31 10:47:48;;;;;;;7.37;3.00;;;;;;;18.11;70.42;100952.31;5015817;28;20041;-80
2021/07/31 10:50:23;;;;;;;7.93;3.33;;;;;;;18.14;73.45;100940.34;5014954;28;20041;-84
2021/07/31 10:53:10;;;;;;;12.23;3.72;;;;;;;18.68;72.84;100944.53;5015661;28;20026;-80
2021/07/31 10:55:36;;;;;;;5.60;2.90;;;;;;;19.72;66.65;100959.41;5015295;28;20497;-86
2021/07/31 10:58:12;;;;;;;7.13;2.80;;;;;;;20.51;62.91;100946.59;5015497;28;20030;-84
2021/07/31 11:00:39;;;;;;;9.18;2.90;;;;;;;21.04;60.95;100951.34;5015462;28;20041;-81
2021/07/31 11:03:25;;;;;;;4.47;2.65;;;;;;;22.39;57.46;100955.63;5015482;28;20041;-87
2021/07/31 11:06:05;;;;;;;5.68;2.40;;;;;;;22.48;55.48;100948.91;5015221;28;20038;-83
2021/07/31 11:08:52;;;;;;;7.05;2.50;;;;;;;21.35;57.30;100966.13;5014697;28;20025;-80
2021/07/31 11:11:18;;;;;;;9.65;2.92;;;;;;;20.98;58.91;100974.63;5010381;28;20041;-79
2021/07/31 11:13:46;;;;;;;6.15;2.65;;;;;;;20.63;61.72;100958.50;5015283;28;20382;-78
2021/07/31 11:16:17;;;;;;;7.45;2.83;;;;;;;20.63;59.99;100972.00;5014535;28;20034;-77
2021/07/31 11:18:47;;;;;;;7.18;2.50;;;;;;;20.47;59.58;100983.16;5015092;28;20037;-77